sensor_id;sensor_type;location;lat;lon;timestamp;pressure;altitude;pressure_sealevel;temperature;humidity
47726;BME280;33483;48.294;16.388;2023-05-22T00:01:33;99515.47;;;13.85;100.00
47726;BME280;33483;48.294;16.388;2023-05-22T00:04:03;99507.25;;;13.80;100.00
47726;BME280;33483;48.294;16.388;2023-05-22T00:06:30;99518.56;;;13.74;100.00
47726;BME280;33483;48.294;16.388;2023-05-22T00:08:59;99516.31;;;13.73;100.00
47726;BME280;33483;48.294;16.388;2023-05-22T00:11:27;99510.34;;;13.69;100.00
47726;BME280;33483;48.294;16.388;2023-05-22T00:13:54;99506.44;;;13.64;100.00
47726;BME280;33483;48.294;16.388;2023-05-22T00:16:21;99504.56;;;13.59;100.00
47726;BME280;33483;48.294;16.388;2023-05-22T00:18:48;99510.50;;;13.55;100.00
47726;BME280;33483;48.294;16.388;2023-05-22T00:21:15;99513.63;;;13.52;100.00
47726;BME280;33483;48.294;16.388;2023-05-22T00:23:42;99506.94;;;13.47;100.00
47726;BME280;33483;48.294;16.388;2023-05-22T00:26:13;99510.59;;;13.42;100.00
47726;BME280;33483;48.294;16.388;2023-05-22T00:28:44;99506.88;;;13.40;100.00
47726;BME280;33483;48.294;16.388;2023-05-22T00:31:11;99503.13;;;13.37;100.00
47726;BME280;33483;48.294;16.388;2023-05-22T00:33:38;99497.19;;;13.33;100.00
47726;BME280;33483;48.294;16.388;2023-05-22T00:36:06;99510.56;;;13.35;100.00
47726;BME280;33483;48.294;16.388;2023-05-22T00:38:33;99501.25;;;13.32;100.00
47726;BME280;33483;48.294;16.388;2023-05-22T00:41:01;99506.44;;;13.28;100.00
47726;BME280;33483;48.294;16.388;2023-05-22T00:43:28;99506.25;;;13.26;100.00
47726;BME280;33483;48.294;16.388;2023-05-22T00:45:57;99504.53;;;13.23;100.00
47726;BME280;33483;48.294;16.388;2023-05-22T00:48:25;99509.91;;;13.21;100.00
47726;BME280;33483;48.294;16.388;2023-05-22T00:50:54;99500.06;;;13.20;100.00
47726;BME280;33483;48.294;16.388;2023-05-22T00:53:23;99500.63;;;13.19;100.00
47726;BME280;33483;48.294;16.388;2023-05-22T00:55:51;99493.03;;;13.19;100.00
47726;BME280;33483;48.294;16.388;2023-05-22T00:58:19;99492.63;;;13.15;100.00
47726;BME280;33483;48.294;16.388;2023-05-22T01:00:47;99488.88;;;13.13;100.00
47726;BME280;33483;48.294;16.388;2023-05-22T01:03:18;99478.84;;;13.10;100.00
47726;BME280;33483;48.294;16.388;2023-05-22T01:05:52;99487.25;;;13.17;100.00
47726;BME280;33483;48.294;16.388;2023-05-22T01:08:22;99489.06;;;13.15;100.00
47726;BME280;33483;48.294;16.388;2023-05-22T01:10:55;99496.28;;;13.10;100.00
47726;BME280;33483;48.294;16.388;2023-05-22T01:13:33;99494.59;;;13.07;100.00
47726;BME280;33483;48.294;16.388;2023-05-22T01:18:37;99490.13;;;13.04;100.00
47726;BME280;33483;48.294;16.388;2023-05-22T01:31:46;99505.56;;;12.92;100.00
47726;BME280;33483;48.294;16.388;2023-05-22T01:34:14;99508.91;;;12.91;100.00
47726;BME280;33483;48.294;16.388;2023-05-22T01:36:43;99509.19;;;13.00;100.00
47726;BME280;33483;48.294;16.388;2023-05-22T01:39:11;99515.34;;;13.06;100.00
47726;BME280;33483;48.294;16.388;2023-05-22T01:41:40;99515.56;;;13.08;100.00
47726;BME280;33483;48.294;16.388;2023-05-22T01:44:09;99515.16;;;13.04;100.00
47726;BME280;33483;48.294;16.388;2023-05-22T01:46:36;99508.53;;;13.07;100.00
47726;BME280;33483;48.294;16.388;2023-05-22T01:49:03;99514.94;;;13.02;100.00
47726;BME280;33483;48.294;16.388;2023-05-22T01:56:46;99501.56;;;13.01;100.00
47726;BME280;33483;48.294;16.388;2023-05-22T01:59:34;99508.53;;;13.07;100.00
47726;BME280;33483;48.294;16.388;2023-05-22T02:02:05;99501.56;;;13.01;100.00
47726;BME280;33483;48.294;16.388;2023-05-22T02:04:34;99510.41;;;12.92;100.00
47726;BME280;33483;48.294;16.388;2023-05-22T02:07:03;99509.03;;;12.85;100.00
47726;BME280;33483;48.294;16.388;2023-05-22T02:09:31;99506.06;;;12.83;100.00
47726;BME280;33483;48.294;16.388;2023-05-22T02:11:59;99495.09;;;12.78;100.00
47726;BME280;33483;48.294;16.388;2023-05-22T02:14:28;99496.78;;;12.81;100.00
47726;BME280;33483;48.294;16.388;2023-05-22T02:16:56;99503.44;;;12.78;100.00
47726;BME280;33483;48.294;16.388;2023-05-22T02:19:25;99496.78;;;12.81;100.00
47726;BME280;33483;48.294;16.388;2023-05-22T02:21:55;99491.56;;;12.77;100.00
47726;BME280;33483;48.294;16.388;2023-05-22T02:24:24;99493.34;;;12.67;100.00
47726;BME280;33483;48.294;16.388;2023-05-22T02:26:52;99499.97;;;12.64;100.00
47726;BME280;33483;48.294;16.388;2023-05-22T02:29:23;99489.38;;;12.63;100.00
47726;BME280;33483;48.294;16.388;2023-05-22T02:31:52;99500.84;;;12.59;100.00
47726;BME280;33483;48.294;16.388;2023-05-22T02:34:19;99496.59;;;12.58;100.00
47726;BME280;33483;48.294;16.388;2023-05-22T02:36:46;99496.38;;;12.56;100.00
47726;BME280;33483;48.294;16.388;2023-05-22T02:39:14;99492.03;;;12.48;100.00
47726;BME280;33483;48.294;16.388;2023-05-22T02:41:44;99490.13;;;12.42;100.00
47726;BME280;33483;48.294;16.388;2023-05-22T02:44:11;99491.41;;;12.41;100.00
47726;BME280;33483;48.294;16.388;2023-05-22T02:46:42;99489.72;;;12.38;100.00
47726;BME280;33483;48.294;16.388;2023-05-22T02:49:09;99486.81;;;12.44;100.00
47726;BME280;33483;48.294;16.388;2023-05-22T02:51:36;99487.03;;;12.46;100.00
47726;BME280;33483;48.294;16.388;2023-05-22T02:54:03;99486.19;;;12.38;100.00
47726;BME280;33483;48.294;16.388;2023-05-22T02:56:30;99485.25;;;12.35;100.00
47726;BME280;33483;48.294;16.388;2023-05-22T02:58:57;99478.94;;;12.35;100.00
47726;BME280;33483;48.294;16.388;2023-05-22T03:01:27;99479.75;;;12.43;100.00
47726;BME280;33483;48.294;16.388;2023-05-22T03:03:56;99483.16;;;12.49;100.00
47726;BME280;33483;48.294;16.388;2023-05-22T03:06:23;99485.31;;;12.43;100.00
47726;BME280;33483;48.294;16.388;2023-05-22T03:08:52;99487.69;;;12.39;100.00
47726;BME280;33483;48.294;16.388;2023-05-22T03:11:19;99483.41;;;12.38;100.00
47726;BME280;33483;48.294;16.388;2023-05-22T03:13:47;99484.72;;;12.37;100.00
47726;BME280;33483;48.294;16.388;2023-05-22T03:16:14;99481.81;;;12.42;100.00
47726;BME280;33483;48.294;16.388;2023-05-22T03:18:44;99478.81;;;12.40;100.00
47726;BME280;33483;48.294;16.388;2023-05-22T03:21:11;99472.28;;;12.38;100.00
47726;BME280;33483;48.294;16.388;2023-05-22T03:23:38;99476.56;;;12.39;100.00
47726;BME280;33483;48.294;16.388;2023-05-22T03:26:06;99487.38;;;12.42;100.00
47726;BME280;33483;48.294;16.388;2023-05-22T03:28:36;99484.97;;;12.46;100.00
47726;BME280;33483;48.294;16.388;2023-05-22T03:31:03;99481.50;;;12.54;100.00
47726;BME280;33483;48.294;16.388;2023-05-22T03:33:40;99486.59;;;12.63;100.00
47726;BME280;33483;48.294;16.388;2023-05-22T03:36:07;99488.16;;;12.71;100.00
47726;BME280;33483;48.294;16.388;2023-05-22T03:38:35;99482.13;;;12.80;100.00
47726;BME280;33483;48.294;16.388;2023-05-22T03:41:05;99483.53;;;12.94;100.00
47726;BME280;33483;48.294;16.388;2023-05-22T03:43:33;99489.19;;;13.02;100.00
47726;BME280;33483;48.294;16.388;2023-05-22T03:46:00;99491.28;;;13.09;100.00
47726;BME280;33483;48.294;16.388;2023-05-22T03:48:27;99492.81;;;13.17;100.00
47726;BME280;33483;48.294;16.388;2023-05-22T03:50:54;99498.63;;;13.27;100.00
47726;BME280;33483;48.294;16.388;2023-05-22T03:53:22;99494.22;;;13.31;100.00
47726;BME280;33483;48.294;16.388;2023-05-22T03:55:52;99501.84;;;13.38;100.00
47726;BME280;33483;48.294;16.388;2023-05-22T03:58:19;99508.75;;;13.45;100.00
47726;BME280;33483;48.294;16.388;2023-05-22T04:00:46;99512.88;;;13.51;100.00
47726;BME280;33483;48.294;16.388;2023-05-22T04:03:16;99505.13;;;13.57;100.00
47726;BME280;33483;48.294;16.388;2023-05-22T04:05:46;99499.03;;;13.67;100.00
47726;BME280;33483;48.294;16.388;2023-05-22T04:08:15;99506.91;;;13.83;100.00
47726;BME280;33483;48.294;16.388;2023-05-22T04:10:43;99508.63;;;13.94;100.00
47726;BME280;33483;48.294;16.388;2023-05-22T04:13:12;99509.03;;;14.05;100.00
47726;BME280;33483;48.294;16.388;2023-05-22T04:15:39;99508.13;;;14.18;100.00
47726;BME280;33483;48.294;16.388;2023-05-22T04:18:12;99515.63;;;14.30;100.00
47726;BME280;33483;48.294;16.388;2023-05-22T04:20:40;99515.47;;;14.36;100.00
47726;BME280;33483;48.294;16.388;2023-05-22T04:23:08;99515.69;;;14.53;100.00
47726;BME280;33483;48.294;16.388;2023-05-22T04:25:36;99509.75;;;14.64;100.00
47726;BME280;33483;48.294;16.388;2023-05-22T04:28:03;99506.97;;;14.72;100.00
47726;BME280;33483;48.294;16.388;2023-05-22T04:30:30;99501.03;;;14.83;100.00
47726;BME280;33483;48.294;16.388;2023-05-22T04:33:03;99519.44;;;14.93;100.00
47726;BME280;33483;48.294;16.388;2023-05-22T04:35:31;99516.28;;;15.04;100.00
47726;BME280;33483;48.294;16.388;2023-05-22T04:38:00;99510.31;;;15.08;100.00
47726;BME280;33483;48.294;16.388;2023-05-22T04:40:32;99515.88;;;15.53;100.00
47726;BME280;33483;48.294;16.388;2023-05-22T04:43:00;99507.41;;;15.75;100.00
47726;BME280;33483;48.294;16.388;2023-05-22T04:45:28;99513.53;;;15.82;100.00
47726;BME280;33483;48.294;16.388;2023-05-22T04:47:59;99511.28;;;15.88;100.00
47726;BME280;33483;48.294;16.388;2023-05-22T04:50:32;99511.41;;;15.97;100.00
47726;BME280;33483;48.294;16.388;2023-05-22T04:53:01;99513.97;;;16.50;100.00
47726;BME280;33483;48.294;16.388;2023-05-22T04:55:30;99510.41;;;16.49;100.00
47726;BME280;33483;48.294;16.388;2023-05-22T04:58:00;99510.63;;;16.44;100.00
47726;BME280;33483;48.294;16.388;2023-05-22T05:00:28;99505.03;;;16.44;100.00
47726;BME280;33483;48.294;16.388;2023-05-22T05:02:55;99497.53;;;16.54;100.00
47726;BME280;33483;48.294;16.388;2023-05-22T05:05:23;99504.78;;;16.57;100.00
47726;BME280;33483;48.294;16.388;2023-05-22T05:07:52;99500.13;;;16.84;100.00
47726;BME280;33483;48.294;16.388;2023-05-22T05:10:19;99514.78;;;18.02;100.00
47726;BME280;33483;48.294;16.388;2023-05-22T05:12:49;99531.78;;;19.20;100.00
47726;BME280;33483;48.294;16.388;2023-05-22T05:15:18;99524.19;;;20.26;100.00
47726;BME280;33483;48.294;16.388;2023-05-22T05:17:45;99528.03;;;20.80;100.00
47726;BME280;33483;48.294;16.388;2023-05-22T05:20:13;99527.28;;;20.10;100.00
47726;BME280;33483;48.294;16.388;2023-05-22T05:22:40;99535.16;;;19.83;100.00
47726;BME280;33483;48.294;16.388;2023-05-22T05:25:14;99541.38;;;19.82;100.00
47726;BME280;33483;48.294;16.388;2023-05-22T05:27:42;99544.09;;;20.49;100.00
47726;BME280;33483;48.294;16.388;2023-05-22T05:30:09;99535.19;;;21.33;100.00
47726;BME280;33483;48.294;16.388;2023-05-22T05:33:09;99539.72;;;21.89;100.00
47726;BME280;33483;48.294;16.388;2023-05-22T05:36:00;99533.91;;;21.45;100.00
47726;BME280;33483;48.294;16.388;2023-05-22T05:38:28;99531.47;;;21.09;100.00
47726;BME280;33483;48.294;16.388;2023-05-22T05:40:56;99544.50;;;21.14;100.00
47726;BME280;33483;48.294;16.388;2023-05-22T05:43:24;99539.81;;;21.28;100.00
47726;BME280;33483;48.294;16.388;2023-05-22T05:45:54;99542.22;;;20.82;100.00
47726;BME280;33483;48.294;16.388;2023-05-22T05:48:21;99536.25;;;20.47;100.00
47726;BME280;33483;48.294;16.388;2023-05-22T05:50:48;99533.03;;;20.32;100.00
47726;BME280;33483;48.294;16.388;2023-05-22T05:53:15;99541.22;;;20.18;100.00
47726;BME280;33483;48.294;16.388;2023-05-22T05:55:51;99536.19;;;19.97;100.00
47726;BME280;33483;48.294;16.388;2023-05-22T05:58:19;99536.59;;;20.23;100.00
47726;BME280;33483;48.294;16.388;2023-05-22T06:01:06;99525.75;;;20.38;100.00
47726;BME280;33483;48.294;16.388;2023-05-22T06:03:37;99531.53;;;20.50;100.00
47726;BME280;33483;48.294;16.388;2023-05-22T06:06:14;99528.66;;;20.59;100.00
47726;BME280;33483;48.294;16.388;2023-05-22T06:09:02;99518.78;;;20.49;100.00
47726;BME280;33483;48.294;16.388;2023-05-22T06:11:36;99521.13;;;20.62;100.00
47726;BME280;33483;48.294;16.388;2023-05-22T06:14:03;99521.22;;;20.24;100.00
47726;BME280;33483;48.294;16.388;2023-05-22T06:16:34;99519.13;;;20.34;100.00
47726;BME280;33483;48.294;16.388;2023-05-22T06:19:04;99519.88;;;20.34;100.00
47726;BME280;33483;48.294;16.388;2023-05-22T06:21:36;99525.25;;;20.61;100.00
47726;BME280;33483;48.294;16.388;2023-05-22T06:24:03;99526.75;;;20.92;100.00
47726;BME280;33483;48.294;16.388;2023-05-22T06:26:35;99521.66;;;21.10;100.00
47726;BME280;33483;48.294;16.388;2023-05-22T06:29:02;99524.31;;;21.17;100.00
47726;BME280;33483;48.294;16.388;2023-05-22T06:31:34;99527.78;;;20.97;100.00
47726;BME280;33483;48.294;16.388;2023-05-22T06:34:06;99522.88;;;20.97;100.00
47726;BME280;33483;48.294;16.388;2023-05-22T06:36:34;99517.13;;;21.26;100.00
47726;BME280;33483;48.294;16.388;2023-05-22T06:39:01;99517.59;;;21.44;100.00
47726;BME280;33483;48.294;16.388;2023-05-22T06:41:47;99518.41;;;21.56;100.00
47726;BME280;33483;48.294;16.388;2023-05-22T06:44:14;99523.72;;;21.82;96.04
47726;BME280;33483;48.294;16.388;2023-05-22T06:46:42;99530.25;;;22.17;86.72
47726;BME280;33483;48.294;16.388;2023-05-22T06:49:18;99525.94;;;22.61;87.09
47726;BME280;33483;48.294;16.388;2023-05-22T06:51:50;99537.38;;;24.28;75.66
47726;BME280;33483;48.294;16.388;2023-05-22T06:54:19;99546.63;;;26.03;62.55
47726;BME280;33483;48.294;16.388;2023-05-22T06:56:51;99547.34;;;27.09;56.86
47726;BME280;33483;48.294;16.388;2023-05-22T06:59:18;99552.75;;;28.18;51.71
47726;BME280;33483;48.294;16.388;2023-05-22T07:02:05;99557.88;;;28.56;50.15
47726;BME280;33483;48.294;16.388;2023-05-22T07:04:50;99560.56;;;29.46;45.19
47726;BME280;33483;48.294;16.388;2023-05-22T07:07:26;99562.91;;;29.93;44.77
47726;BME280;33483;48.294;16.388;2023-05-22T07:09:54;99566.69;;;30.21;43.55
47726;BME280;33483;48.294;16.388;2023-05-22T07:12:23;99569.84;;;30.29;43.04
47726;BME280;33483;48.294;16.388;2023-05-22T07:14:53;99566.34;;;30.11;42.67
47726;BME280;33483;48.294;16.388;2023-05-22T07:17:23;99557.75;;;30.54;41.24
47726;BME280;33483;48.294;16.388;2023-05-22T07:19:50;99556.19;;;30.49;40.77
47726;BME280;33483;48.294;16.388;2023-05-22T07:22:18;99556.91;;;30.97;40.65
47726;BME280;33483;48.294;16.388;2023-05-22T07:24:47;99550.56;;;31.50;38.31
47726;BME280;33483;48.294;16.388;2023-05-22T07:27:17;99549.13;;;31.78;38.16
47726;BME280;33483;48.294;16.388;2023-05-22T07:29:47;99545.94;;;31.92;38.16
47726;BME280;33483;48.294;16.388;2023-05-22T07:32:17;99552.97;;;31.87;38.04
47726;BME280;33483;48.294;16.388;2023-05-22T07:34:45;99551.06;;;31.70;36.85
47726;BME280;33483;48.294;16.388;2023-05-22T07:37:12;99552.84;;;32.11;34.78
47726;BME280;33483;48.294;16.388;2023-05-22T07:39:42;99560.84;;;32.44;35.14
47726;BME280;33483;48.294;16.388;2023-05-22T07:42:09;99547.63;;;32.03;36.82
47726;BME280;33483;48.294;16.388;2023-05-22T07:44:45;99547.97;;;32.78;34.37
47726;BME280;33483;48.294;16.388;2023-05-22T07:47:12;99548.69;;;32.45;35.13
47726;BME280;33483;48.294;16.388;2023-05-22T07:49:43;99547.72;;;32.66;34.76
47726;BME280;33483;48.294;16.388;2023-05-22T07:52:10;99548.97;;;32.91;34.77
47726;BME280;33483;48.294;16.388;2023-05-22T07:54:38;99545.06;;;32.76;34.82
47726;BME280;33483;48.294;16.388;2023-05-22T07:57:08;99546.19;;;32.93;34.51
47726;BME280;33483;48.294;16.388;2023-05-22T07:59:38;99534.38;;;32.79;33.63
47726;BME280;33483;48.294;16.388;2023-05-22T08:02:08;99531.31;;;32.71;34.96
47726;BME280;33483;48.294;16.388;2023-05-22T08:04:38;99533.63;;;32.78;34.75
47726;BME280;33483;48.294;16.388;2023-05-22T08:07:06;99544.94;;;33.04;34.62
47726;BME280;33483;48.294;16.388;2023-05-22T08:09:35;99541.91;;;33.30;34.29
47726;BME280;33483;48.294;16.388;2023-05-22T08:12:05;99540.59;;;33.37;34.68
47726;BME280;33483;48.294;16.388;2023-05-22T08:14:33;99535.53;;;33.35;34.37
47726;BME280;33483;48.294;16.388;2023-05-22T08:17:01;99547.63;;;33.30;33.25
47726;BME280;33483;48.294;16.388;2023-05-22T08:19:33;99542.19;;;33.44;33.79
47726;BME280;33483;48.294;16.388;2023-05-22T08:22:03;99545.84;;;33.48;31.60
47726;BME280;33483;48.294;16.388;2023-05-22T08:24:30;99532.91;;;33.47;33.75
47726;BME280;33483;48.294;16.388;2023-05-22T08:26:57;99536.28;;;33.38;31.77
47726;BME280;33483;48.294;16.388;2023-05-22T08:29:27;99540.56;;;33.74;32.40
47726;BME280;33483;48.294;16.388;2023-05-22T08:31:54;99549.06;;;34.06;30.51
47726;BME280;33483;48.294;16.388;2023-05-22T08:34:23;99536.06;;;34.03;31.72
47726;BME280;33483;48.294;16.388;2023-05-22T08:36:50;99532.81;;;33.83;31.85
47726;BME280;33483;48.294;16.388;2023-05-22T08:39:20;99537.75;;;34.18;31.20
47726;BME280;33483;48.294;16.388;2023-05-22T08:41:47;99534.81;;;34.16;31.20
47726;BME280;33483;48.294;16.388;2023-05-22T08:44:15;99528.66;;;33.92;31.51
47726;BME280;33483;48.294;16.388;2023-05-22T08:46:43;99531.22;;;33.74;33.00
47726;BME280;33483;48.294;16.388;2023-05-22T08:49:11;99522.69;;;33.40;33.00
47726;BME280;33483;48.294;16.388;2023-05-22T08:51:39;99521.88;;;33.73;32.87
47726;BME280;33483;48.294;16.388;2023-05-22T08:54:08;99531.41;;;33.84;31.08
47726;BME280;33483;48.294;16.388;2023-05-22T08:56:36;99524.41;;;33.95;31.68
47726;BME280;33483;48.294;16.388;2023-05-22T08:59:14;99518.56;;;33.89;32.73
47726;BME280;33483;48.294;16.388;2023-05-22T09:01:45;99520.25;;;34.04;32.36
47726;BME280;33483;48.294;16.388;2023-05-22T09:04:12;99526.81;;;34.10;32.69
47726;BME280;33483;48.294;16.388;2023-05-22T09:06:40;99523.53;;;33.86;32.62
47726;BME280;33483;48.294;16.388;2023-05-22T09:09:07;99518.03;;;33.59;32.85
47726;BME280;33483;48.294;16.388;2023-05-22T09:11:38;99530.44;;;33.69;32.36
47726;BME280;33483;48.294;16.388;2023-05-22T09:14:08;99528.34;;;32.98;32.06
47726;BME280;33483;48.294;16.388;2023-05-22T09:16:46;99525.66;;;32.75;33.27
47726;BME280;33483;48.294;16.388;2023-05-22T09:19:13;99521.47;;;32.80;33.51
47726;BME280;33483;48.294;16.388;2023-05-22T09:21:41;99518.41;;;33.03;32.92
47726;BME280;33483;48.294;16.388;2023-05-22T09:24:09;99517.25;;;32.85;34.45
47726;BME280;33483;48.294;16.388;2023-05-22T09:26:39;99518.72;;;33.22;32.38
47726;BME280;33483;48.294;16.388;2023-05-22T09:29:09;99512.56;;;32.99;33.28
47726;BME280;33483;48.294;16.388;2023-05-22T09:31:40;99513.84;;;33.28;32.79
47726;BME280;33483;48.294;16.388;2023-05-22T09:34:09;99518.72;;;33.57;32.80
47726;BME280;33483;48.294;16.388;2023-05-22T09:36:39;99513.91;;;33.70;32.52
47726;BME280;33483;48.294;16.388;2023-05-22T09:39:07;99522.16;;;33.12;32.61
47726;BME280;33483;48.294;16.388;2023-05-22T09:41:36;99511.09;;;33.72;31.27
47726;BME280;33483;48.294;16.388;2023-05-22T09:44:12;99518.41;;;33.03;33.28
47726;BME280;33483;48.294;16.388;2023-05-22T09:46:44;99512.84;;;33.14;33.34
47726;BME280;33483;48.294;16.388;2023-05-22T09:49:12;99521.56;;;33.18;31.73
47726;BME280;33483;48.294;16.388;2023-05-22T09:51:44;99510.09;;;33.20;32.33
47726;BME280;33483;48.294;16.388;2023-05-22T09:54:14;99502.00;;;33.48;33.21
47726;BME280;33483;48.294;16.388;2023-05-22T09:56:42;99510.41;;;33.75;32.31
47726;BME280;33483;48.294;16.388;2023-05-22T09:59:10;99515.53;;;33.81;31.73
47726;BME280;33483;48.294;16.388;2023-05-22T10:01:38;99507.97;;;33.58;33.94
47726;BME280;33483;48.294;16.388;2023-05-22T10:08:43;99504.06;;;33.83;33.48
47726;BME280;33483;48.294;16.388;2023-05-22T10:11:14;99486.56;;;33.69;32.88
47726;BME280;33483;48.294;16.388;2023-05-22T10:13:43;99484.75;;;33.46;34.86
47726;BME280;33483;48.294;16.388;2023-05-22T10:16:14;99492.69;;;33.12;33.54
47726;BME280;33483;48.294;16.388;2023-05-22T10:23:15;99474.34;;;32.57;34.46
47726;BME280;33483;48.294;16.388;2023-05-22T10:33:58;99472.44;;;33.03;35.49
47726;BME280;33483;48.294;16.388;2023-05-22T10:44:00;99476.34;;;31.89;34.66
47726;BME280;33483;48.294;16.388;2023-05-22T10:46:30;99464.63;;;32.09;35.32
47726;BME280;33483;48.294;16.388;2023-05-22T10:49:00;99467.03;;;31.89;32.99
47726;BME280;33483;48.294;16.388;2023-05-22T10:51:29;99459.16;;;31.62;33.18
47726;BME280;33483;48.294;16.388;2023-05-22T10:53:58;99455.63;;;31.63;35.60
47726;BME280;33483;48.294;16.388;2023-05-22T10:56:31;99458.53;;;31.65;34.71
47726;BME280;33483;48.294;16.388;2023-05-22T10:58:59;99461.09;;;32.11;36.23
47726;BME280;33483;48.294;16.388;2023-05-22T11:01:31;99453.28;;;31.85;34.39
47726;BME280;33483;48.294;16.388;2023-05-22T11:04:18;99455.00;;;31.67;34.95
47726;BME280;33483;48.294;16.388;2023-05-22T11:07:03;99450.06;;;31.69;34.89
47726;BME280;33483;48.294;16.388;2023-05-22T11:14:20;99426.47;;;29.72;38.39
47726;BME280;33483;48.294;16.388;2023-05-22T11:16:48;99424.28;;;30.39;37.25
47726;BME280;33483;48.294;16.388;2023-05-22T11:19:15;99424.75;;;30.55;37.39
47726;BME280;33483;48.294;16.388;2023-05-22T11:24:44;99420.25;;;30.72;35.46
47726;BME280;33483;48.294;16.388;2023-05-22T11:30:15;99417.81;;;30.62;35.29
47726;BME280;33483;48.294;16.388;2023-05-22T11:37:21;99411.19;;;31.07;34.46
47726;BME280;33483;48.294;16.388;2023-05-22T11:39:57;99408.41;;;30.83;34.36
47726;BME280;33483;48.294;16.388;2023-05-22T11:42:27;99401.06;;;30.27;38.03
47726;BME280;33483;48.294;16.388;2023-05-22T11:44:56;99406.72;;;30.25;40.76
47726;BME280;33483;48.294;16.388;2023-05-22T11:51:49;99399.75;;;29.63;37.47
47726;BME280;33483;48.294;16.388;2023-05-22T11:54:17;99392.66;;;29.43;39.45
47726;BME280;33483;48.294;16.388;2023-05-22T11:56:44;99396.22;;;29.43;38.60
47726;BME280;33483;48.294;16.388;2023-05-22T11:59:12;99394.38;;;28.69;39.78
47726;BME280;33483;48.294;16.388;2023-05-22T12:04:40;99395.75;;;28.68;41.92
47726;BME280;33483;48.294;16.388;2023-05-22T12:11:12;99382.97;;;27.07;43.89
47726;BME280;33483;48.294;16.388;2023-05-22T12:13:40;99374.16;;;26.68;45.20
47726;BME280;33483;48.294;16.388;2023-05-22T12:19:10;99363.34;;;27.48;43.60
47726;BME280;33483;48.294;16.388;2023-05-22T12:21:40;99376.31;;;27.18;41.47
47726;BME280;33483;48.294;16.388;2023-05-22T12:24:09;99373.13;;;27.61;42.15
47726;BME280;33483;48.294;16.388;2023-05-22T12:31:04;99370.84;;;27.57;41.21
47726;BME280;33483;48.294;16.388;2023-05-22T12:33:34;99376.16;;;27.85;40.66
47726;BME280;33483;48.294;16.388;2023-05-22T12:36:05;99374.94;;;27.90;42.54
47726;BME280;33483;48.294;16.388;2023-05-22T12:41:40;99378.13;;;27.80;39.35
47726;BME280;33483;48.294;16.388;2023-05-22T12:44:09;99379.19;;;27.36;40.84
47726;BME280;33483;48.294;16.388;2023-05-22T12:46:36;99376.34;;;27.36;42.29
47726;BME280;33483;48.294;16.388;2023-05-22T12:49:04;99367.81;;;27.53;42.16
47726;BME280;33483;48.294;16.388;2023-05-22T12:51:31;99371.97;;;27.50;40.87
47726;BME280;33483;48.294;16.388;2023-05-22T12:53:59;99373.41;;;27.34;41.64
47726;BME280;33483;48.294;16.388;2023-05-22T12:56:30;99372.53;;;27.64;41.25
47726;BME280;33483;48.294;16.388;2023-05-22T12:58:57;99365.78;;;27.73;39.45
47726;BME280;33483;48.294;16.388;2023-05-22T13:01:24;99374.16;;;27.87;40.22
47726;BME280;33483;48.294;16.388;2023-05-22T13:03:52;99365.13;;;27.93;39.63
47726;BME280;33483;48.294;16.388;2023-05-22T13:06:19;99364.84;;;27.87;40.64
47726;BME280;33483;48.294;16.388;2023-05-22T13:08:46;99356.59;;;27.75;41.55
47726;BME280;33483;48.294;16.388;2023-05-22T13:11:14;99354.63;;;27.62;41.40
47726;BME280;33483;48.294;16.388;2023-05-22T13:13:41;99353.91;;;27.26;42.62
47726;BME280;33483;48.294;16.388;2023-05-22T13:16:10;99350.88;;;26.72;43.46
47726;BME280;33483;48.294;16.388;2023-05-22T13:18:38;99347.66;;;26.63;43.80
47726;BME280;33483;48.294;16.388;2023-05-22T13:21:05;99348.56;;;26.68;43.25
47726;BME280;33483;48.294;16.388;2023-05-22T13:23:32;99346.81;;;26.61;41.85
47726;BME280;33483;48.294;16.388;2023-05-22T13:25:59;99347.75;;;26.65;43.38
47726;BME280;33483;48.294;16.388;2023-05-22T13:28:28;99338.78;;;26.40;43.99
47726;BME280;33483;48.294;16.388;2023-05-22T13:30:55;99346.66;;;26.57;43.83
47726;BME280;33483;48.294;16.388;2023-05-22T13:33:22;99336.94;;;26.95;42.82
47726;BME280;33483;48.294;16.388;2023-05-22T13:35:50;99331.78;;;27.25;42.75
47726;BME280;33483;48.294;16.388;2023-05-22T13:38:20;99330.25;;;27.39;42.72
47726;BME280;33483;48.294;16.388;2023-05-22T13:40:47;99327.31;;;27.37;40.04
47726;BME280;33483;48.294;16.388;2023-05-22T13:43:15;99327.00;;;27.47;38.98
47726;BME280;33483;48.294;16.388;2023-05-22T13:45:44;99330.13;;;27.72;39.82
47726;BME280;33483;48.294;16.388;2023-05-22T13:48:11;99326.25;;;27.64;39.02
47726;BME280;33483;48.294;16.388;2023-05-22T13:50:39;99320.13;;;27.71;39.86
47726;BME280;33483;48.294;16.388;2023-05-22T13:53:06;99324.19;;;27.84;40.24
47726;BME280;33483;48.294;16.388;2023-05-22T13:55:44;99331.25;;;28.01;41.31
47726;BME280;33483;48.294;16.388;2023-05-22T13:58:18;99328.03;;;28.30;41.53
47726;BME280;33483;48.294;16.388;2023-05-22T14:00:45;99330.53;;;28.39;41.02
47726;BME280;33483;48.294;16.388;2023-05-22T14:03:13;99332.19;;;28.07;39.43
47726;BME280;33483;48.294;16.388;2023-05-22T14:05:43;99317.34;;;28.11;39.34
47726;BME280;33483;48.294;16.388;2023-05-22T14:08:11;99316.78;;;28.14;39.40
47726;BME280;33483;48.294;16.388;2023-05-22T14:10:39;99308.44;;;28.01;40.34
47726;BME280;33483;48.294;16.388;2023-05-22T14:13:08;99308.47;;;27.83;40.51
47726;BME280;33483;48.294;16.388;2023-05-22T14:15:35;99303.34;;;27.80;41.40
47726;BME280;33483;48.294;16.388;2023-05-22T14:18:02;99301.91;;;27.79;40.32